Time;durP1;ratioP1;P1;durP2;ratioP2;P2;SDS_P1;SDS_P2;PMS_P1;PMS_P2;Temp;Humidity;BMP_temperature;BMP_pressure;BME280_temperature;BME280_humidity;BME280_pressure;Samples;Min_cycle;Max_cycle;Signal;HPM_P1;HPM_P2
2023/10/28 13:28:15;;;;;;;2.30;0.87;;;16.40;99.90;18.80;99299.00;;;;6243494;23;20194;-70
2023/10/28 13:30:41;;;;;;;2.27;1.40;;;16.10;99.90;17.80;99277.00;;;;6231399;23;20171;-70
2023/10/28 13:33:07;;;;;;;0.30;0.30;;;15.60;99.90;18.30;99287.00;;;;6243416;23;20188;-70
2023/10/28 13:35:33;;;;;;;0.20;0.20;;;15.70;99.90;18.10;99273.00;;;;6243542;23;20171;-70
2023/10/28 13:37:59;;;;;;;0.10;0.10;;;15.60;99.90;18.50;99289.00;;;;6243354;23;20248;-70
2023/10/28 13:40:27;;;;;;;0.20;0.20;;;15.70;99.90;19.30;99275.00;;;;6243163;23;20205;-70
2023/10/28 13:42:54;;;;;;;0.43;0.43;;;16.00;99.90;18.50;99286.00;;;;6244764;22;20195;-70
2023/10/28 13:45:23;;;;;;;0.17;0.17;;;15.90;99.90;19.20;99285.00;;;;6242313;23;20173;-71
2023/10/28 13:47:51;;;;;;;2.00;1.23;;;16.00;99.90;18.20;99285.00;;;;6195832;23;20173;-72
2023/10/28 13:50:18;;;;;;;0.93;0.30;;;15.80;99.90;18.70;99238.00;;;;6222935;23;20621;-72
2023/10/28 13:52:49;;;;;;;0.90;0.90;;;15.80;99.90;17.70;99277.00;;;;6245114;22;20241;-70
2023/10/28 13:55:18;;;;;;;0.10;0.10;;;15.70;99.90;17.60;99259.00;;;;6228417;23;20175;-72
2023/10/28 13:57:46;;;;;;;3.50;0.80;;;15.40;99.90;18.10;99274.00;;;;6217945;23;20173;-70
2023/10/28 14:00:14;;;;;;;2.45;0.75;;;15.40;99.90;17.40;99270.00;;;;6242891;23;20475;-70
2023/10/28 14:02:40;;;;;;;0.40;0.40;;;15.30;99.90;17.80;99264.00;;;;6243236;23;20263;-70
2023/10/28 14:05:08;;;;;;;3.07;0.70;;;15.20;99.90;18.00;99279.00;;;;6243306;23;20610;-71
2023/10/28 14:08:03;;;;;;;0.93;0.93;;;15.30;99.90;18.40;99280.00;;;;6217611;23;20172;-70
2023/10/28 14:10:39;;;;;;;0.37;0.37;;;15.50;99.90;18.30;99269.00;;;;6221869;23;20230;-70
2023/10/28 14:13:21;;;;;;;0.20;0.20;;;15.50;99.90;17.40;99256.00;;;;6243427;23;20161;-70
2023/10/28 14:16:25;;;;;;;0.20;0.20;;;15.40;99.90;18.00;99274.00;;;;6245032;22;20179;-70
2023/10/28 14:19:23;;;;;;;0.50;0.40;;;15.40;99.90;18.50;99265.00;;;;6215859;23;20176;-70
2023/10/28 14:21:54;;;;;;;0.40;0.40;;;15.60;99.90;18.90;99268.00;;;;6198648;23;20194;-69
2023/10/28 14:24:50;;;;;;;1.70;1.07;;;15.80;99.90;18.20;99249.00;;;;6242654;23;20174;-71
2023/10/28 14:28:05;;;;;;;0.83;0.20;;;15.70;99.90;18.70;99250.00;;;;6227847;23;20177;-71
2023/10/28 14:30:34;;;;;;;3.13;1.53;;;15.80;99.90;18.60;99271.00;;;;6243256;23;20478;-72
2023/10/28 14:33:16;;;;;;;0.50;0.50;;;15.90;99.90;17.80;99242.00;;;;6244794;23;20162;-71
2023/10/28 14:36:14;;;;;;;0.20;0.20;;;15.60;99.90;18.40;99265.00;;;;6244709;23;20200;-71
2023/10/28 14:39:35;;;;;;;0.40;0.30;;;15.60;99.90;18.30;99257.00;;;;6236575;23;20165;-71
2023/10/28 14:42:56;;;;;;;0.70;0.70;;;15.70;99.90;18.60;99267.00;;;;6243381;23;20189;-71
2023/10/28 14:46:05;;;;;;;0.90;0.90;;;15.80;99.90;18.20;99249.00;;;;6242945;23;20240;-71
2023/10/28 14:49:11;;;;;;;5.20;0.93;;;15.70;99.90;17.70;99205.00;;;;6222417;23;20180;-70
2023/10/28 14:52:14;;;;;;;0.20;0.20;;;15.50;99.90;17.90;99242.00;;;;6230017;23;20586;-71
2023/10/28 14:55:36;;;;;;;0.67;0.67;;;15.30;99.90;18.20;99244.00;;;;6243910;22;20172;-70
2023/10/28 14:59:02;;;;;;;2.00;0.63;;;15.40;99.90;18.00;99226.00;;;;6203701;23;20176;-70
2023/10/28 15:02:13;;;;;;;1.03;0.80;;;15.50;99.90;18.20;99235.00;;;;6242879;23;20165;-71
2023/10/28 15:05:25;;;;;;;0.23;0.23;;;15.60;99.90;17.60;99223.00;;;;6243002;23;20175;-71
2023/10/28 15:08:28;;;;;;;0.67;0.40;;;15.30;99.90;18.00;99229.00;;;;6242560;23;20174;-71
2023/10/28 15:11:39;;;;;;;0.33;0.33;;;15.30;99.90;17.90;99187.00;;;;6242840;23;20254;-71
2023/10/28 15:14:35;;;;;;;0.53;0.47;;;15.30;99.90;18.10;99221.00;;;;6229177;23;20171;-71
2023/10/28 15:17:49;;;;;;;0.20;0.20;;;15.30;99.90;18.00;99217.00;;;;6242486;23;20611;-70
2023/10/28 15:20:55;;;;;;;0.47;0.47;;;15.40;99.90;17.80;99206.00;;;;6243985;23;20221;-70
2023/10/28 15:24:05;;;;;;;0.20;0.20;;;15.30;99.90;17.60;99226.00;;;;6245262;23;20188;-70
2023/10/28 15:27:20;;;;;;;0.60;0.60;;;15.20;99.90;17.90;99204.00;;;;6242128;23;20604;-70
2023/10/28 15:30:36;;;;;;;0.70;0.70;;;15.10;99.90;17.70;99210.00;;;;6229595;23;20171;-70
2023/10/28 15:33:58;;;;;;;2.07;0.53;;;15.10;99.90;17.90;99188.00;;;;6244095;23;20212;-70
2023/10/28 15:36:45;;;;;;;0.37;0.37;;;15.00;99.90;18.40;99207.00;;;;6202439;23;20505;-71
2023/10/28 15:39:13;;;;;;;0.30;0.30;;;15.10;99.90;17.50;99203.00;;;;6218347;23;20253;-72
2023/10/28 15:41:43;;;;;;;0.53;0.53;;;15.00;99.90;17.30;99214.00;;;;6244905;22;20698;-72
2023/10/28 15:44:12;;;;;;;0.30;0.30;;;14.80;99.90;17.40;99207.00;;;;6240281;23;20616;-72
2023/10/28 15:46:38;;;;;;;0.50;0.50;;;14.80;99.90;17.30;99193.00;;;;6243882;23;20178;-71
2023/10/28 15:49:10;;;;;;;0.20;0.20;;;14.70;99.90;17.40;99196.00;;;;6217079;23;20491;-72
2023/10/28 15:51:38;;;;;;;1.20;0.70;;;14.70;99.90;17.30;99191.00;;;;6244981;23;20602;-72
2023/10/28 15:54:08;;;;;;;1.13;1.13;;;14.60;99.90;17.10;99194.00;;;;6223352;23;20249;-72
2023/10/28 15:56:36;;;;;;;1.20;0.40;;;14.60;99.90;17.10;99190.00;;;;6243129;23;20176;-72
2023/10/28 15:59:03;;;;;;;0.50;0.50;;;14.60;99.90;17.50;99186.00;;;;6245030;22;20618;-72
2023/10/28 16:01:35;;;;;;;0.33;0.33;;;14.60;99.90;17.20;99177.00;;;;6206675;23;20185;-72
2023/10/28 16:04:04;;;;;;;0.20;0.20;;;14.60;99.90;17.20;99175.00;;;;6218494;23;20158;-72
2023/10/28 16:06:35;;;;;;;2.97;0.50;;;14.50;99.90;17.20;99189.00;;;;6243455;23;20167;-72
2023/10/28 16:09:07;;;;;;;0.77;0.52;;;14.60;99.90;17.10;99185.00;;;;6244369;22;20837;-72
2023/10/28 16:11:33;;;;;;;1.23;0.97;;;14.50;99.90;17.10;99193.00;;;;6216235;23;20164;-72
2023/10/28 16:14:04;;;;;;;0.30;0.30;;;14.40;99.90;16.20;99129.00;;;;6219424;23;20184;-72
2023/10/28 16:16:35;;;;;;;1.33;1.33;;;14.20;99.90;16.70;99176.00;;;;6222259;23;20163;-72
2023/10/28 16:19:09;;;;;;;1.43;0.90;;;14.20;99.90;16.50;99173.00;;;;6245412;22;20599;-72
2023/10/28 16:21:39;;;;;;;1.50;1.40;;;14.20;99.90;17.00;99186.00;;;;6202865;23;20182;-72
2023/10/28 16:24:06;;;;;;;0.73;0.70;;;14.30;99.90;17.00;99184.00;;;;6218494;23;20180;-72
2023/10/28 16:26:37;;;;;;;0.30;0.30;;;14.40;99.90;17.10;99141.00;;;;6244523;22;20166;-72
2023/10/28 16:29:08;;;;;;;0.30;0.30;;;14.40;99.90;16.70;99185.00;;;;6245221;23;20605;-72
2023/10/28 16:31:34;;;;;;;0.50;0.50;;;14.30;99.90;17.00;99182.00;;;;6244995;23;20543;-72
2023/10/28 16:34:00;;;;;;;0.40;0.40;;;14.30;99.90;16.60;99181.00;;;;6241406;23;20156;-72
2023/10/28 16:36:31;;;;;;;0.90;0.90;;;14.20;99.90;16.70;99175.00;;;;6243121;23;20170;-72
2023/10/28 16:38:57;;;;;;;1.03;0.67;;;14.20;99.90;17.30;99147.00;;;;6243762;23;20166;-72
2023/10/28 16:41:39;;;;;;;0.80;0.43;;;14.40;99.90;16.50;99145.00;;;;6243792;23;20196;-72
2023/10/28 16:44:33;;;;;;;1.03;0.93;;;14.20;99.90;16.30;99145.00;;;;6229449;23;20157;-72
2023/10/28 16:47:03;;;;;;;0.40;0.40;;;14.10;99.90;16.50;99138.00;;;;6242557;23;20173;-72
2023/10/28 16:49:37;;;;;;;0.30;0.30;;;14.00;99.90;16.90;99143.00;;;;6243486;23;20217;-72
2023/10/28 16:52:23;;;;;;;1.03;0.50;;;14.10;99.90;16.30;99134.00;;;;6243257;23;20146;-72
2023/10/28 16:55:12;;;;;;;0.30;0.30;;;14.00;99.90;16.80;99140.00;;;;6222539;23;20512;-72
2023/10/28 16:58:19;;;;;;;0.70;0.70;;;14.00;99.90;16.70;99134.00;;;;6243450;22;20595;-72
2023/10/28 17:00:57;;;;;;;1.43;0.73;;;14.00;99.90;16.80;99120.00;;;;6218580;23;20252;-72
2023/10/28 17:04:07;;;;;;;0.40;0.40;;;14.10;99.90;16.80;99141.00;;;;6243528;23;20177;-72
2023/10/28 17:06:56;;;;;;;0.40;0.40;;;14.10;99.90;16.80;99126.00;;;;6203820;23;20178;-72
2023/10/28 17:09:51;;;;;;;0.33;0.33;;;14.10;99.90;16.80;99103.00;;;;6242435;23;20174;-71
2023/10/28 17:13:00;;;;;;;0.60;0.60;;;14.20;99.90;16.50;99128.00;;;;6227074;23;20223;-72
2023/10/28 17:15:50;;;;;;;10.97;1.60;;;14.00;99.90;16.90;99119.00;;;;6224578;23;20252;-71
2023/10/28 17:19:02;;;;;;;1.73;1.03;;;14.10;99.90;17.00;99104.00;;;;6243413;23;20170;-72
2023/10/28 17:22:11;;;;;;;0.57;0.57;;;14.20;99.90;17.50;99135.00;;;;6242155;23;20170;-72
2023/10/28 17:25:28;;;;;;;0.50;0.50;;;14.30;99.90;16.60;99130.00;;;;6229628;23;20599;-72
2023/10/28 17:28:27;;;;;;;0.40;0.40;;;14.20;99.90;16.90;99121.00;;;;6233212;23;20177;-72
2023/10/28 17:31:11;;;;;;;0.80;0.80;;;14.20;99.90;17.70;99124.00;;;;6244768;23;20170;-71
2023/10/28 17:34:20;;;;;;;0.43;0.43;;;14.30;99.90;17.20;99117.00;;;;6229292;23;20169;-71
2023/10/28 17:37:24;;;;;;;0.30;0.30;;;14.30;99.90;17.30;99120.00;;;;6243895;22;20175;-72
2023/10/28 17:40:37;;;;;;;2.77;1.70;;;14.30;99.90;17.30;99118.00;;;;6222644;23;20602;-71
2023/10/28 17:43:53;;;;;;;0.60;0.60;;;14.30;99.90;16.70;99118.00;;;;6244347;22;20623;-71
2023/10/28 17:47:14;;;;;;;2.37;1.43;;;14.20;99.90;17.10;99115.00;;;;6220241;23;20509;-71
2023/10/28 17:49:41;;;;;;;1.53;0.80;;;14.30;99.90;16.70;99111.00;;;;6207887;23;20166;-71
2023/10/28 17:52:15;;;;;;;0.93;0.93;;;14.20;99.90;17.10;99108.00;;;;6243365;23;20166;-72
2023/10/28 17:54:48;;;;;;;0.50;0.40;;;14.30;99.90;16.90;99062.00;;;;6244805;22;20223;-71
2023/10/28 17:57:22;;;;;;;0.77;0.40;;;14.30;99.90;17.00;99064.00;;;;6242833;23;20248;-71
2023/10/28 18:00:02;;;;;;;4.53;0.53;;;14.30;99.90;16.70;99100.00;;;;6244864;23;20187;-71
2023/10/28 18:02:36;;;;;;;0.30;0.30;;;14.20;99.90;16.80;99090.00;;;;6243046;23;20193;-71
2023/10/28 18:05:18;;;;;;;0.60;0.60;;;14.20;99.90;16.40;99103.00;;;;6244890;23;20169;-71
2023/10/28 18:08:01;;;;;;;0.83;0.83;;;14.00;99.90;16.80;99084.00;;;;6233648;23;20630;-71
2023/10/28 18:10:46;;;;;;;0.60;0.60;;;13.90;99.90;16.10;99066.00;;;;6243907;22;20197;-71
2023/10/28 18:13:31;;;;;;;0.70;0.70;;;13.80;99.90;15.90;99060.00;;;;6242605;23;20193;-71
2023/10/28 18:16:11;;;;;;;0.60;0.60;;;13.60;99.90;15.90;99051.00;;;;6244292;23;20185;-71
2023/10/28 18:18:50;;;;;;;0.50;0.50;;;13.50;99.90;16.10;99043.00;;;;6228888;23;20534;-71
2023/10/28 18:21:26;;;;;;;0.50;0.50;;;13.50;99.90;16.30;99058.00;;;;6243359;23;20172;-72
2023/10/28 18:24:03;;;;;;;0.77;0.77;;;13.50;99.90;16.20;99035.00;;;;6244206;22;20177;-72
2023/10/28 18:26:32;;;;;;;0.93;0.70;;;13.40;99.90;16.00;99027.00;;;;6243400;23;20169;-71
2023/10/28 18:29:04;;;;;;;0.60;0.60;;;13.40;99.90;16.10;99011.00;;;;6242419;23;20167;-72
2023/10/28 18:31:47;;;;;;;0.53;0.53;;;13.40;99.90;16.20;99026.00;;;;6221010;23;20200;-70
2023/10/28 18:34:21;;;;;;;0.70;0.70;;;13.40;99.90;16.20;99013.00;;;;6244482;22;20172;-72
2023/10/28 18:36:57;;;;;;;0.70;0.70;;;13.50;99.90;16.50;99007.00;;;;6244245;23;20161;-72
2023/10/28 18:39:31;;;;;;;0.70;0.70;;;13.50;99.90;16.20;98997.00;;;;6233990;23;20169;-72
2023/10/28 18:42:11;;;;;;;0.50;0.50;;;13.50;99.90;16.30;98971.00;;;;6243041;23;20181;-72
2023/10/28 18:44:45;;;;;;;0.47;0.47;;;13.50;99.90;16.30;98996.00;;;;6243082;23;20148;-72
2023/10/28 18:47:22;;;;;;;0.73;0.73;;;13.60;99.90;16.20;98987.00;;;;6244225;23;20670;-72
2023/10/28 18:49:57;;;;;;;0.87;0.70;;;13.60;99.90;15.90;98938.00;;;;6224725;23;20161;-72
2023/10/28 18:52:52;;;;;;;2.20;0.70;;;13.50;99.90;16.00;98989.00;;;;6241280;23;20173;-72
2023/10/28 18:55:28;;;;;;;0.47;0.47;;;13.60;99.90;16.40;98968.00;;;;6245190;22;20196;-72
2023/10/28 18:58:02;;;;;;;1.47;0.87;;;13.60;99.90;15.70;98963.00;;;;6241260;23;20173;-72
2023/10/28 19:00:42;;;;;;;0.50;0.50;;;13.50;99.90;15.90;98976.00;;;;6243325;23;20200;-72
2023/10/28 19:03:21;;;;;;;0.40;0.40;;;13.50;99.90;16.00;98958.00;;;;6222905;23;20261;-71
2023/10/28 19:06:09;;;;;;;1.00;0.90;;;13.50;99.90;15.70;98971.00;;;;6243819;23;20173;-71
2023/10/28 19:08:48;;;;;;;0.60;0.60;;;13.50;99.90;16.10;98910.00;;;;6243316;23;20173;-72
2023/10/28 19:11:34;;;;;;;0.40;0.40;;;13.40;99.90;16.10;98938.00;;;;6244240;23;20168;-72
2023/10/28 19:14:09;;;;;;;0.87;0.87;;;13.40;99.90;16.10;98939.00;;;;6243624;23;20169;-73
2023/10/28 19:16:52;;;;;;;1.57;0.70;;;13.40;99.90;15.80;98927.00;;;;6245615;23;20244;-72
2023/10/28 19:19:18;;;;;;;2.00;0.70;;;13.30;99.90;15.80;98910.00;;;;6227874;23;20175;-73
2023/10/28 19:21:52;;;;;;;0.70;0.70;;;13.30;99.90;16.10;98926.00;;;;6218743;23;20191;-73
2023/10/28 19:24:26;;;;;;;0.50;0.50;;;13.30;99.90;15.80;98929.00;;;;6243878;23;20180;-73
2023/10/28 19:26:57;;;;;;;2.23;0.60;;;13.30;99.90;16.30;98883.00;;;;6244120;23;20158;-73
2023/10/28 19:29:55;;;;;;;0.40;0.40;;;13.40;99.90;16.30;98915.00;;;;6244945;22;20534;-72
2023/10/28 19:32:54;;;;;;;0.57;0.57;;;13.40;99.90;15.60;98922.00;;;;6223450;23;20169;-73
2023/10/28 19:35:26;;;;;;;0.87;0.70;;;13.40;99.90;15.90;98919.00;;;;6232271;23;20192;-72
2023/10/28 19:38:06;;;;;;;1.80;1.17;;;13.30;99.90;15.60;98867.00;;;;6242930;23;20172;-72
2023/10/28 19:40:40;;;;;;;0.67;0.67;;;13.40;99.90;15.90;98927.00;;;;6243906;23;20226;-72
2023/10/28 19:43:17;;;;;;;2.70;1.47;;;13.30;99.90;15.50;98911.00;;;;6245282;22;20598;-72
2023/10/28 19:45:59;;;;;;;0.70;0.70;;;13.30;99.90;16.00;98885.00;;;;6221375;23;20176;-72
2023/10/28 19:48:42;;;;;;;0.63;0.63;;;13.30;99.90;16.10;98920.00;;;;6244214;23;20191;-73
2023/10/28 19:51:23;;;;;;;0.70;0.70;;;13.40;99.90;15.80;98906.00;;;;6206548;23;20170;-72
2023/10/28 19:53:59;;;;;;;0.50;0.50;;;13.40;99.90;16.00;98885.00;;;;6243864;23;20255;-73
2023/10/28 19:56:35;;;;;;;2.30;0.90;;;13.50;99.90;16.00;98903.00;;;;6217472;23;20185;-73
2023/10/28 19:59:15;;;;;;;0.80;0.80;;;13.50;99.90;16.00;98885.00;;;;6218861;23;20577;-72
2023/10/28 20:01:54;;;;;;;1.73;0.93;;;13.50;99.90;15.60;98891.00;;;;6223000;23;20181;-72
2023/10/28 20:04:31;;;;;;;3.20;0.67;;;13.60;99.90;16.20;98883.00;;;;6219661;23;20170;-72
2023/10/28 20:07:05;;;;;;;0.50;0.50;;;13.60;99.90;16.00;98892.00;;;;6218586;23;20176;-72
2023/10/28 20:09:42;;;;;;;0.80;0.80;;;13.60;99.90;16.10;98887.00;;;;6244051;23;20169;-72
2023/10/28 20:12:22;;;;;;;0.97;0.97;;;13.60;99.90;15.30;98851.00;;;;6217363;23;20229;-72
2023/10/28 20:14:56;;;;;;;1.00;0.97;;;13.50;99.90;15.70;98881.00;;;;6219114;23;20679;-72
2023/10/28 20:17:27;;;;;;;0.97;0.97;;;13.50;99.90;15.70;98887.00;;;;6222558;23;20600;-72
2023/10/28 20:20:08;;;;;;;1.10;1.00;;;13.50;99.90;15.70;98885.00;;;;6244028;23;20232;-72
2023/10/28 20:22:42;;;;;;;0.70;0.70;;;13.60;99.90;16.00;98865.00;;;;6242289;23;20186;-72
2023/10/28 20:25:19;;;;;;;0.80;0.80;;;13.70;99.90;15.90;98866.00;;;;6245148;22;20177;-71
2023/10/28 20:27:53;;;;;;;1.07;0.93;;;13.70;99.90;15.70;98856.00;;;;6239719;23;20161;-71
2023/10/28 20:30:24;;;;;;;6.90;0.83;;;13.70;99.90;15.90;98805.00;;;;6242698;23;20166;-73
2023/10/28 20:33:02;;;;;;;0.70;0.70;;;13.70;99.90;16.10;98846.00;;;;6194054;23;20677;-73
2023/10/28 20:35:36;;;;;;;0.90;0.90;;;13.80;99.90;15.80;98783.00;;;;6224176;23;20173;-72
2023/10/28 20:38:11;;;;;;;0.90;0.90;;;13.70;99.90;16.20;98836.00;;;;6243065;23;20778;-71
2023/10/28 20:40:48;;;;;;;0.60;0.60;;;13.80;99.90;16.00;98830.00;;;;6242875;23;20165;-71
2023/10/28 20:43:29;;;;;;;0.60;0.60;;;13.70;99.90;16.30;98814.00;;;;6243598;23;20189;-72
2023/10/28 20:46:07;;;;;;;0.70;0.70;;;13.80;99.90;16.00;98823.00;;;;6244788;22;20169;-73
2023/10/28 20:48:46;;;;;;;1.43;0.67;;;13.80;99.90;16.30;98807.00;;;;6194329;23;20248;-72
2023/10/28 20:51:24;;;;;;;0.70;0.70;;;13.80;99.90;16.00;98802.00;;;;6197699;23;20557;-73
2023/10/28 20:54:03;;;;;;;0.80;0.80;;;13.70;99.90;16.20;98791.00;;;;6244059;23;20200;-72
2023/10/28 20:56:38;;;;;;;0.73;0.73;;;13.80;99.90;16.10;98787.00;;;;6243463;23;20180;-72
